Time;durP1;ratioP1;P1;durP2;ratioP2;P2;SDS_P1;SDS_P2;PMS_P1;PMS_P2;Temp;Humidity;BMP_temperature;BMP_pressure;BME280_temperature;BME280_humidity;BME280_pressure;Samples;Min_cycle;Max_cycle;Signal;HPM_P1;HPM_P2
2022/02/14 00:01:23;;;;;;;7.03;3.58;;;;;;;;;;5066948;28;20046;-48
2022/02/14 00:03:49;;;;;;;8.75;4.10;;;;;;;;;;5072299;28;20055;-48
2022/02/14 00:06:15;;;;;;;10.10;4.05;;;;;;;;;;5066023;28;20389;-47
2022/02/14 00:08:44;;;;;;;7.25;3.90;;;;;;;;;;5066884;28;20036;-48
2022/02/14 00:11:10;;;;;;;9.45;4.28;;;;;;;;;;5069364;28;20429;-48
2022/02/14 00:13:36;;;;;;;16.17;4.95;;;;;;;;;;5068227;28;20055;-48
2022/02/14 00:16:03;;;;;;;7.60;3.70;;;;;;;;;;5060274;28;20044;-48
2022/02/14 00:18:29;;;;;;;7.90;3.85;;;;;;;;;;5072945;28;20083;-48
2022/02/14 00:20:55;;;;;;;6.55;3.65;;;;;;;;;;5069340;28;20037;-49
2022/02/14 00:23:21;;;;;;;7.15;3.58;;;;;;;;;;5072808;28;20076;-48
2022/02/14 00:25:47;;;;;;;11.77;4.03;;;;;;;;;;5069404;28;20024;-51
2022/02/14 00:28:13;;;;;;;9.80;3.90;;;;;;;;;;5069895;28;20492;-53
2022/02/14 00:30:39;;;;;;;6.80;3.97;;;;;;;;;;5071723;28;20021;-48
2022/02/14 00:33:05;;;;;;;6.75;3.92;;;;;;;;;;5072149;28;20548;-48
2022/02/14 00:35:31;;;;;;;7.97;4.10;;;;;;;;;;5067006;28;20032;-48
2022/02/14 00:37:57;;;;;;;6.30;3.65;;;;;;;;;;5063231;28;20535;-50
2022/02/14 00:40:23;;;;;;;7.43;3.75;;;;;;;;;;5065155;28;20387;-48
2022/02/14 00:42:49;;;;;;;10.45;3.92;;;;;;;;;;5071750;28;20115;-48
2022/02/14 00:45:16;;;;;;;9.07;3.58;;;;;;;;;;5071550;28;20064;-50
2022/02/14 00:47:42;;;;;;;9.98;4.25;;;;;;;;;;5080740;28;20084;-48
2022/02/14 00:50:08;;;;;;;12.85;4.10;;;;;;;;;;5076283;28;20584;-48
2022/02/14 00:52:34;;;;;;;20.92;4.80;;;;;;;;;;5071830;28;20070;-49
2022/02/14 00:55:00;;;;;;;9.32;4.05;;;;;;;;;;5068009;28;20040;-48
2022/02/14 00:57:27;;;;;;;9.43;3.50;;;;;;;;;;5066737;28;20035;-53
2022/02/14 00:59:53;;;;;;;8.18;3.72;;;;;;;;;;5071737;28;20029;-48
2022/02/14 01:02:19;;;;;;;6.53;3.67;;;;;;;;;;5068038;28;20021;-48
2022/02/14 01:04:45;;;;;;;6.50;3.22;;;;;;;;;;5072339;28;20039;-48
2022/02/14 01:07:11;;;;;;;10.25;3.90;;;;;;;;;;5069389;28;20032;-48
2022/02/14 01:09:37;;;;;;;8.65;4.07;;;;;;;;;;5064891;28;20040;-49
2022/02/14 01:12:03;;;;;;;13.20;4.65;;;;;;;;;;5066876;28;20056;-49
2022/02/14 01:14:30;;;;;;;11.93;4.28;;;;;;;;;;5064130;28;20058;-48
2022/02/14 01:16:57;;;;;;;6.13;3.53;;;;;;;;;;5064300;28;20021;-49
2022/02/14 01:19:23;;;;;;;9.52;3.60;;;;;;;;;;5066174;28;20087;-50
2022/02/14 01:21:49;;;;;;;8.00;3.33;;;;;;;;;;5059325;28;20392;-48
2022/02/14 01:24:15;;;;;;;7.60;4.43;;;;;;;;;;5071410;28;20040;-48
2022/02/14 01:26:42;;;;;;;11.38;3.67;;;;;;;;;;5068124;28;20063;-48
2022/02/14 01:29:08;;;;;;;6.72;3.42;;;;;;;;;;5057512;28;20063;-48
2022/02/14 01:31:34;;;;;;;5.60;3.33;;;;;;;;;;5065544;28;20123;-48
2022/02/14 01:34:00;;;;;;;8.38;3.38;;;;;;;;;;5068161;28;20052;-48
2022/02/14 01:36:26;;;;;;;6.28;3.40;;;;;;;;;;5058602;28;20077;-48
2022/02/14 01:38:52;;;;;;;6.45;3.28;;;;;;;;;;5061845;28;20082;-48
2022/02/14 01:41:18;;;;;;;6.43;3.10;;;;;;;;;;5067440;28;20101;-50
2022/02/14 01:43:44;;;;;;;5.57;3.53;;;;;;;;;;5071345;28;20096;-48
2022/02/14 01:46:10;;;;;;;6.88;3.28;;;;;;;;;;5067997;28;20385;-48
2022/02/14 01:48:37;;;;;;;5.80;3.20;;;;;;;;;;5072712;28;20097;-48
2022/02/14 01:51:03;;;;;;;8.18;3.50;;;;;;;;;;5070529;28;20029;-48
2022/02/14 01:53:29;;;;;;;6.45;2.90;;;;;;;;;;5067806;28;20098;-48
2022/02/14 01:55:55;;;;;;;11.55;3.75;;;;;;;;;;5065506;28;20028;-48
2022/02/14 01:58:22;;;;;;;6.43;3.70;;;;;;;;;;5069983;28;20054;-53
2022/02/14 02:00:48;;;;;;;6.20;3.25;;;;;;;;;;5062690;28;20052;-46
2022/02/14 02:03:15;;;;;;;6.57;3.00;;;;;;;;;;5070740;28;20035;-46
2022/02/14 02:05:43;;;;;;;5.40;3.28;;;;;;;;;;5070789;28;20047;-46
2022/02/14 02:08:09;;;;;;;6.82;3.47;;;;;;;;;;5070013;28;20047;-47
2022/02/14 02:10:37;;;;;;;7.50;2.97;;;;;;;;;;5062747;28;20041;-47
2022/02/14 02:13:03;;;;;;;9.88;2.95;;;;;;;;;;5071367;28;20025;-47
2022/02/14 02:15:29;;;;;;;9.50;3.30;;;;;;;;;;5070371;28;20369;-46
2022/02/14 02:17:55;;;;;;;7.03;3.25;;;;;;;;;;5069140;28;20086;-47
2022/02/14 02:20:22;;;;;;;6.80;3.25;;;;;;;;;;5066184;28;20055;-47
2022/02/14 02:22:49;;;;;;;5.80;3.05;;;;;;;;;;5058642;28;20025;-47
2022/02/14 02:25:15;;;;;;;5.80;2.67;;;;;;;;;;5071872;28;20480;-46
2022/02/14 02:27:42;;;;;;;7.30;3.03;;;;;;;;;;5055674;28;20032;-46
2022/02/14 02:30:09;;;;;;;9.23;3.78;;;;;;;;;;5062317;28;20021;-47
2022/02/14 02:32:35;;;;;;;5.05;2.88;;;;;;;;;;5069939;28;20073;-48
2022/02/14 02:35:02;;;;;;;6.50;3.00;;;;;;;;;;5065943;28;20563;-47
2022/02/14 02:37:28;;;;;;;9.32;3.42;;;;;;;;;;5069809;28;20070;-47
2022/02/14 02:39:54;;;;;;;5.13;3.05;;;;;;;;;;5060420;28;20087;-48
2022/02/14 02:42:22;;;;;;;7.07;2.78;;;;;;;;;;5069487;28;20031;-47
2022/02/14 02:44:48;;;;;;;7.68;3.10;;;;;;;;;;5062253;28;20036;-46
2022/02/14 02:47:15;;;;;;;5.22;2.70;;;;;;;;;;5069948;28;20025;-46
2022/02/14 02:49:41;;;;;;;6.78;2.80;;;;;;;;;;5069759;28;20761;-47
2022/02/14 02:52:08;;;;;;;4.88;2.78;;;;;;;;;;5062318;28;20017;-47
2022/02/14 02:54:34;;;;;;;6.25;2.70;;;;;;;;;;5063708;28;20047;-47
2022/02/14 02:57:00;;;;;;;5.82;3.17;;;;;;;;;;5067155;28;20029;-46
2022/02/14 02:59:27;;;;;;;4.93;2.70;;;;;;;;;;5069782;28;20421;-46
2022/02/14 03:01:53;;;;;;;7.20;3.10;;;;;;;;;;5058364;28;20443;-46
2022/02/14 03:04:20;;;;;;;7.22;3.08;;;;;;;;;;5070273;28;20484;-46
2022/02/14 03:06:46;;;;;;;5.85;2.67;;;;;;;;;;5063951;28;20029;-48
2022/02/14 03:09:14;;;;;;;4.90;3.10;;;;;;;;;;5068416;28;20043;-47
2022/02/14 03:11:40;;;;;;;8.18;2.75;;;;;;;;;;5069155;28;20150;-46
2022/02/14 03:14:06;;;;;;;3.95;2.60;;;;;;;;;;5069841;28;20036;-47
2022/02/14 03:16:33;;;;;;;5.80;2.80;;;;;;;;;;5069711;28;20056;-46
2022/02/14 03:18:59;;;;;;;6.25;2.70;;;;;;;;;;5058344;28;20051;-47
2022/02/14 03:21:25;;;;;;;4.57;2.75;;;;;;;;;;5069215;28;20025;-47
2022/02/14 03:23:52;;;;;;;5.80;2.80;;;;;;;;;;5069745;28;20032;-46
2022/02/14 03:26:19;;;;;;;4.13;2.63;;;;;;;;;;5065585;28;20407;-46
2022/02/14 03:28:45;;;;;;;4.00;2.72;;;;;;;;;;5070970;28;20086;-47
2022/02/14 03:31:12;;;;;;;6.38;2.90;;;;;;;;;;5068532;28;20031;-46
2022/02/14 03:33:38;;;;;;;5.57;2.70;;;;;;;;;;5071852;28;20020;-47
2022/02/14 03:36:05;;;;;;;5.07;2.33;;;;;;;;;;5073594;28;20536;-47
2022/02/14 03:38:31;;;;;;;7.38;2.72;;;;;;;;;;5060713;28;20021;-47
2022/02/14 03:40:57;;;;;;;4.32;2.47;;;;;;;;;;5066663;28;20047;-46
2022/02/14 03:43:23;;;;;;;5.35;2.45;;;;;;;;;;5063178;28;20129;-48
2022/02/14 03:45:49;;;;;;;4.93;2.90;;;;;;;;;;5067424;28;20025;-46
2022/02/14 03:48:15;;;;;;;5.15;2.65;;;;;;;;;;5065849;28;20082;-46
2022/02/14 03:50:41;;;;;;;4.50;2.88;;;;;;;;;;5073685;28;20111;-46
2022/02/14 03:53:07;;;;;;;6.53;3.50;;;;;;;;;;5062417;28;20036;-46
2022/02/14 03:55:33;;;;;;;4.80;2.03;;;;;;;;;;5073119;28;20032;-48
2022/02/14 03:57:59;;;;;;;6.88;2.85;;;;;;;;;;5074679;28;20066;-51
2022/02/14 04:00:27;;;;;;;7.10;2.40;;;;;;;;;;5071083;28;20048;-47
2022/02/14 04:02:53;;;;;;;5.28;2.55;;;;;;;;;;5068811;28;20496;-46
2022/02/14 04:05:20;;;;;;;7.70;2.30;;;;;;;;;;5068917;28;20040;-48
2022/02/14 04:07:46;;;;;;;5.68;2.80;;;;;;;;;;5074974;28;20376;-46
2022/02/14 04:10:13;;;;;;;7.28;2.17;;;;;;;;;;5073462;28;20028;-47
2022/02/14 04:12:39;;;;;;;6.95;2.65;;;;;;;;;;5071909;28;20108;-48
2022/02/14 04:15:06;;;;;;;5.13;2.47;;;;;;;;;;5074444;28;20020;-48
2022/02/14 04:17:32;;;;;;;4.82;2.40;;;;;;;;;;5072695;28;20044;-46
2022/02/14 04:19:58;;;;;;;3.60;2.15;;;;;;;;;;5074625;28;20032;-46
2022/02/14 04:22:24;;;;;;;4.35;2.45;;;;;;;;;;5059327;28;20037;-49
2022/02/14 04:24:50;;;;;;;5.30;2.55;;;;;;;;;;5085734;28;20031;-46
2022/02/14 04:27:16;;;;;;;4.32;2.55;;;;;;;;;;5063496;28;20057;-46
2022/02/14 04:29:42;;;;;;;6.28;2.67;;;;;;;;;;5074232;28;20452;-46
2022/02/14 04:32:08;;;;;;;5.78;2.92;;;;;;;;;;5071574;28;20029;-46
2022/02/14 04:34:35;;;;;;;4.22;2.60;;;;;;;;;;5063265;28;20090;-48
2022/02/14 04:37:01;;;;;;;4.05;2.35;;;;;;;;;;5073561;28;20021;-47
2022/02/14 04:39:27;;;;;;;4.93;2.63;;;;;;;;;;5060686;28;20107;-46
2022/02/14 04:41:53;;;;;;;5.43;2.83;;;;;;;;;;5076918;28;20032;-46
2022/02/14 04:44:19;;;;;;;3.90;2.60;;;;;;;;;;5073907;28;20067;-46
2022/02/14 04:46:46;;;;;;;8.10;2.58;;;;;;;;;;5069625;28;20120;-47
2022/02/14 04:49:12;;;;;;;4.30;2.65;;;;;;;;;;5073926;28;20032;-46
2022/02/14 04:51:38;;;;;;;6.00;2.53;;;;;;;;;;5068619;28;20393;-46
2022/02/14 04:54:04;;;;;;;5.28;2.75;;;;;;;;;;5073718;28;20044;-46
2022/02/14 04:56:30;;;;;;;5.10;2.30;;;;;;;;;;5068477;28;20021;-46
2022/02/14 04:58:57;;;;;;;4.35;2.70;;;;;;;;;;5072142;28;20090;-46
2022/02/14 05:01:23;;;;;;;6.70;2.80;;;;;;;;;;5061643;28;20061;-45
2022/02/14 05:03:49;;;;;;;7.78;3.30;;;;;;;;;;5062783;28;20523;-49
2022/02/14 05:06:15;;;;;;;5.05;2.60;;;;;;;;;;5065468;28;20420;-47
2022/02/14 05:08:41;;;;;;;5.90;2.40;;;;;;;;;;5068199;28;20103;-49
2022/02/14 05:11:08;;;;;;;8.07;2.70;;;;;;;;;;5066075;28;20044;-46
2022/02/14 05:13:34;;;;;;;4.63;2.47;;;;;;;;;;5073089;28;20457;-46
2022/02/14 05:16:00;;;;;;;3.88;2.00;;;;;;;;;;5060945;28;20040;-46
2022/02/14 05:18:26;;;;;;;6.60;2.80;;;;;;;;;;5063705;28;20036;-46
2022/02/14 05:20:52;;;;;;;6.25;2.53;;;;;;;;;;5064867;28;20161;-47
2022/02/14 05:23:18;;;;;;;4.03;2.33;;;;;;;;;;5066602;28;20021;-47
2022/02/14 05:25:44;;;;;;;5.95;2.50;;;;;;;;;;5063633;28;20470;-48
2022/02/14 05:28:10;;;;;;;6.68;2.85;;;;;;;;;;5054949;28;20059;-46
2022/02/14 05:30:37;;;;;;;6.03;2.72;;;;;;;;;;5061404;28;20162;-47
2022/02/14 05:33:04;;;;;;;5.45;2.78;;;;;;;;;;5068226;28;20035;-48
2022/02/14 05:35:30;;;;;;;4.82;2.47;;;;;;;;;;5066060;28;20488;-47
2022/02/14 05:37:55;;;;;;;6.88;2.72;;;;;;;;;;5059244;28;20024;-46
2022/02/14 05:40:22;;;;;;;5.93;2.67;;;;;;;;;;5063293;28;20407;-46
2022/02/14 05:42:48;;;;;;;5.53;2.72;;;;;;;;;;5066454;28;20021;-46
2022/02/14 05:45:14;;;;;;;4.75;2.60;;;;;;;;;;5066924;28;20108;-47
2022/02/14 05:47:40;;;;;;;6.05;2.70;;;;;;;;;;5069965;28;20093;-48
2022/02/14 05:50:07;;;;;;;4.97;2.63;;;;;;;;;;5066173;28;20119;-46
2022/02/14 05:52:34;;;;;;;4.85;2.67;;;;;;;;;;5064728;28;20056;-48
2022/02/14 05:55:00;;;;;;;5.53;2.45;;;;;;;;;;5062111;28;20540;-46
2022/02/14 05:57:26;;;;;;;6.85;3.03;;;;;;;;;;5071019;28;20349;-46
2022/02/14 05:59:52;;;;;;;5.05;2.65;;;;;;;;;;5069440;28;20044;-46
2022/02/14 06:02:18;;;;;;;5.18;2.50;;;;;;;;;;5061565;28;20024;-47
2022/02/14 06:04:44;;;;;;;4.65;2.60;;;;;;;;;;5069507;28;20112;-49
2022/02/14 06:07:10;;;;;;;7.53;2.53;;;;;;;;;;5072372;28;20025;-49
2022/02/14 06:09:36;;;;;;;5.20;2.65;;;;;;;;;;5065094;28;20095;-48
2022/02/14 06:12:02;;;;;;;5.00;2.83;;;;;;;;;;5067897;28;20032;-48
2022/02/14 06:14:30;;;;;;;7.55;2.60;;;;;;;;;;5069526;28;20089;-48
2022/02/14 06:16:56;;;;;;;5.85;3.17;;;;;;;;;;5075403;28;20103;-49
2022/02/14 06:19:22;;;;;;;7.13;2.72;;;;;;;;;;5071081;28;20123;-48
2022/02/14 06:21:48;;;;;;;4.38;2.70;;;;;;;;;;5070962;28;20098;-48
2022/02/14 06:24:15;;;;;;;5.15;2.92;;;;;;;;;;5070857;28;20078;-48
2022/02/14 06:26:41;;;;;;;7.68;3.47;;;;;;;;;;5059831;28;20479;-48
2022/02/14 06:29:07;;;;;;;8.07;2.90;;;;;;;;;;5062978;28;20032;-48
2022/02/14 06:31:33;;;;;;;6.30;3.00;;;;;;;;;;5056800;28;20028;-49
2022/02/14 06:33:59;;;;;;;4.93;2.40;;;;;;;;;;5062697;28;20496;-52
2022/02/14 06:36:28;;;;;;;5.47;2.50;;;;;;;;;;5067223;28;20075;-52
2022/02/14 06:38:55;;;;;;;6.20;2.92;;;;;;;;;;5060550;28;20029;-52
2022/02/14 06:41:21;;;;;;;5.32;2.83;;;;;;;;;;5065843;28;20070;-48
2022/02/14 06:43:47;;;;;;;4.53;2.60;;;;;;;;;;5063235;28;20029;-49
2022/02/14 06:46:13;;;;;;;8.32;3.58;;;;;;;;;;5060842;28;20040;-48
2022/02/14 06:48:40;;;;;;;4.53;2.45;;;;;;;;;;5062614;28;20042;-48
2022/02/14 06:51:06;;;;;;;6.60;3.00;;;;;;;;;;5056319;28;20029;-48
2022/02/14 06:53:32;;;;;;;7.32;3.22;;;;;;;;;;5057538;28;20059;-48
2022/02/14 06:56:00;;;;;;;8.52;3.50;;;;;;;;;;5069587;28;20078;-49
2022/02/14 06:58:26;;;;;;;5.55;2.58;;;;;;;;;;5063771;28;20029;-48
2022/02/14 07:00:52;;;;;;;5.10;2.45;;;;;;;;;;5060685;28;20169;-50
2022/02/14 07:03:18;;;;;;;5.72;2.22;;;;;;;;;;5071039;28;20135;-48
2022/02/14 07:05:44;;;;;;;6.45;2.83;;;;;;;;;;5069320;28;20027;-48
2022/02/14 07:08:10;;;;;;;4.30;2.53;;;;;;;;;;5066025;28;20074;-50
2022/02/14 07:10:37;;;;;;;8.57;2.90;;;;;;;;;;5070679;28;20376;-48
2022/02/14 07:13:03;;;;;;;4.72;2.50;;;;;;;;;;5067656;28;20025;-49
2022/02/14 07:15:29;;;;;;;4.63;2.35;;;;;;;;;;5066342;28;20041;-50
2022/02/14 07:17:55;;;;;;;4.50;2.92;;;;;;;;;;5061041;28;20123;-48
2022/02/14 07:20:22;;;;;;;5.03;2.80;;;;;;;;;;5059041;28;20033;-48
2022/02/14 07:22:48;;;;;;;4.95;2.88;;;;;;;;;;5072256;28;20016;-49
2022/02/14 07:25:15;;;;;;;6.95;2.90;;;;;;;;;;5062468;28;20472;-48
2022/02/14 07:27:41;;;;;;;8.55;3.33;;;;;;;;;;5065073;28;20029;-50
2022/02/14 07:30:08;;;;;;;6.00;2.92;;;;;;;;;;5065277;28;20066;-49
2022/02/14 07:32:35;;;;;;;8.77;3.08;;;;;;;;;;5071988;28;20037;-49
2022/02/14 07:35:02;;;;;;;5.82;2.78;;;;;;;;;;5067906;28;20647;-48
2022/02/14 07:37:28;;;;;;;6.07;3.17;;;;;;;;;;5067717;28;20039;-48
2022/02/14 07:39:54;;;;;;;11.77;6.68;;;;;;;;;;5077894;28;20436;-48
2022/02/14 07:42:20;;;;;;;6.55;4.13;;;;;;;;;;5063190;28;20028;-50
2022/02/14 07:44:46;;;;;;;7.80;2.95;;;;;;;;;;5085873;28;20035;-48
2022/02/14 07:47:12;;;;;;;4.05;2.50;;;;;;;;;;5063785;28;20162;-50
2022/02/14 07:49:39;;;;;;;7.97;2.90;;;;;;;;;;5060109;28;20036;-51
2022/02/14 07:52:05;;;;;;;9.98;3.40;;;;;;;;;;5066495;28;20036;-53
2022/02/14 07:54:31;;;;;;;4.30;2.38;;;;;;;;;;5069972;28;20044;-49
2022/02/14 07:56:57;;;;;;;7.82;3.67;;;;;;;;;;5068224;28;20476;-51
2022/02/14 07:59:23;;;;;;;6.82;2.55;;;;;;;;;;5059360;28;20033;-51
2022/02/14 08:01:49;;;;;;;5.78;2.58;;;;;;;;;;5071744;28;20111;-50
2022/02/14 08:04:15;;;;;;;6.60;2.80;;;;;;;;;;5071146;28;20024;-50
2022/02/14 08:06:41;;;;;;;5.78;2.35;;;;;;;;;;5070688;28;20432;-51
2022/02/14 08:09:07;;;;;;;6.82;2.47;;;;;;;;;;5060422;28;20025;-53
2022/02/14 08:11:33;;;;;;;5.25;2.63;;;;;;;;;;5064423;28;20480;-48
2022/02/14 08:14:00;;;;;;;5.22;2.30;;;;;;;;;;5064376;28;20032;-53
2022/02/14 08:16:26;;;;;;;6.65;3.30;;;;;;;;;;5066164;28;20035;-49
2022/02/14 08:18:52;;;;;;;5.90;2.38;;;;;;;;;;5061341;28;20689;-48
2022/02/14 08:21:18;;;;;;;3.92;1.88;;;;;;;;;;5065089;28;20025;-53
2022/02/14 08:23:44;;;;;;;7.13;2.50;;;;;;;;;;5069155;28;20027;-48
2022/02/14 08:26:10;;;;;;;5.25;2.50;;;;;;;;;;5069206;28;20108;-51
2022/02/14 08:28:38;;;;;;;4.30;2.45;;;;;;;;;;5065554;28;20385;-53
2022/02/14 08:31:04;;;;;;;5.05;2.30;;;;;;;;;;5065472;28;20043;-49
2022/02/14 08:33:31;;;;;;;4.60;2.00;;;;;;;;;;5067982;28;20025;-48
2022/02/14 08:35:57;;;;;;;6.03;2.50;;;;;;;;;;5064828;28;20086;-54
2022/02/14 08:38:23;;;;;;;3.88;2.00;;;;;;;;;;5063766;28;20032;-49
2022/02/14 08:40:49;;;;;;;2.88;1.95;;;;;;;;;;5068073;28;20032;-50
2022/02/14 08:43:15;;;;;;;5.60;1.85;;;;;;;;;;5071078;28;20098;-49
2022/02/14 08:45:41;;;;;;;6.95;3.03;;;;;;;;;;5071912;28;20032;-48
2022/02/14 08:48:07;;;;;;;5.25;2.08;;;;;;;;;;5068854;28;20036;-50
2022/02/14 08:50:34;;;;;;;6.43;2.30;;;;;;;;;;5070875;28;20372;-53
2022/02/14 08:53:03;;;;;;;6.55;2.47;;;;;;;;;;5068659;28;20044;-51
2022/02/14 08:55:28;;;;;;;4.82;2.00;;;;;;;;;;5063770;28;20025;-50
2022/02/14 08:57:55;;;;;;;4.28;2.58;;;;;;;;;;5063361;28;20400;-48
2022/02/14 09:00:21;;;;;;;7.47;2.67;;;;;;;;;;5074557;28;20042;-49
2022/02/14 09:02:47;;;;;;;5.40;2.40;;;;;;;;;;5078822;28;20095;-48
2022/02/14 09:05:14;;;;;;;5.63;2.53;;;;;;;;;;5070689;28;20132;-54
2022/02/14 09:07:40;;;;;;;5.68;2.28;;;;;;;;;;5071870;28;20024;-48
2022/02/14 09:10:06;;;;;;;4.60;2.30;;;;;;;;;;5069311;28;20491;-49
2022/02/14 09:12:32;;;;;;;5.28;1.98;;;;;;;;;;5063421;28;20094;-49
2022/02/14 09:14:59;;;;;;;3.60;2.10;;;;;;;;;;5066711;28;20111;-50
2022/02/14 09:17:25;;;;;;;5.90;3.17;;;;;;;;;;5066187;28;20032;-48
2022/02/14 09:19:51;;;;;;;5.00;2.63;;;;;;;;;;5061642;28;20086;-49
2022/02/14 09:22:17;;;;;;;6.80;2.35;;;;;;;;;;5066773;28;20031;-50
2022/02/14 09:24:43;;;;;;;5.45;2.58;;;;;;;;;;5064440;28;20037;-50
2022/02/14 09:27:10;;;;;;;5.82;2.95;;;;;;;;;;5065716;28;20103;-48
2022/02/14 09:29:36;;;;;;;8.05;2.38;;;;;;;;;;5055738;28;20035;-50
2022/02/14 09:32:03;;;;;;;5.22;2.97;;;;;;;;;;5067837;28;20413;-49
2022/02/14 09:34:29;;;;;;;4.35;2.33;;;;;;;;;;5066146;28;20021;-49
2022/02/14 09:36:56;;;;;;;7.78;2.55;;;;;;;;;;5057033;28;20029;-49
2022/02/14 09:39:22;;;;;;;4.22;1.92;;;;;;;;;;5056505;28;20033;-53
2022/02/14 09:41:49;;;;;;;4.30;1.85;;;;;;;;;;5065427;28;20495;-50
2022/02/14 09:44:15;;;;;;;5.45;2.30;;;;;;;;;;5070411;28;20028;-52
2022/02/14 09:46:43;;;;;;;3.20;2.20;;;;;;;;;;5060410;28;20031;-51
2022/02/14 09:49:09;;;;;;;4.38;2.10;;;;;;;;;;5068884;28;20381;-49
2022/02/14 09:51:36;;;;;;;4.10;1.98;;;;;;;;;;5063358;28;20081;-50
2022/02/14 09:54:02;;;;;;;4.85;2.17;;;;;;;;;;5060323;28;20044;-49
2022/02/14 09:56:32;;;;;;;3.72;2.10;;;;;;;;;;5061872;28;20033;-49
2022/02/14 09:58:58;;;;;;;4.20;2.10;;;;;;;;;;5069162;28;20024;-50
2022/02/14 10:01:27;;;;;;;4.38;1.90;;;;;;;;;;5063044;28;20108;-51
2022/02/14 10:03:54;;;;;;;4.30;1.70;;;;;;;;;;5066139;28;20025;-50
2022/02/14 10:06:30;;;;;;;4.60;1.98;;;;;;;;;;5058870;28;20199;-49
2022/02/14 10:09:09;;;;;;;4.22;2.17;;;;;;;;;;5067764;28;20025;-49
2022/02/14 10:11:37;;;;;;;3.08;1.70;;;;;;;;;;5067015;28;20407;-49
2022/02/14 10:14:17;;;;;;;5.32;2.03;;;;;;;;;;5062996;28;20028;-52
2022/02/14 10:16:59;;;;;;;7.32;2.08;;;;;;;;;;5061642;28;20625;-49
2022/02/14 10:19:25;;;;;;;3.60;2.30;;;;;;;;;;5069881;28;20110;-49
2022/02/14 10:21:51;;;;;;;3.45;1.90;;;;;;;;;;5058838;28;20480;-51
2022/02/14 10:24:18;;;;;;;3.25;1.30;;;;;;;;;;5064149;28;20029;-49
2022/02/14 10:26:49;;;;;;;4.75;1.52;;;;;;;;;;5062339;28;20044;-50
2022/02/14 10:29:15;;;;;;;2.72;1.75;;;;;;;;;;5064323;28;20036;-49
2022/02/14 10:31:46;;;;;;;4.47;1.83;;;;;;;;;;5062488;28;20046;-49
2022/02/14 10:34:12;;;;;;;4.07;1.95;;;;;;;;;;5063296;28;20111;-52
2022/02/14 10:36:40;;;;;;;2.95;1.67;;;;;;;;;;5064510;28;20465;-49
2022/02/14 10:39:10;;;;;;;1.95;1.13;;;;;;;;;;5054062;28;20094;-49
2022/02/14 10:41:37;;;;;;;4.30;2.00;;;;;;;;;;5061020;28;20021;-51
2022/02/14 10:44:07;;;;;;;4.97;1.67;;;;;;;;;;5066594;28;20025;-49
2022/02/14 10:46:33;;;;;;;3.97;1.85;;;;;;;;;;5061581;28;20464;-54
2022/02/14 10:49:00;;;;;;;2.70;1.60;;;;;;;;;;5067484;28;20057;-53
2022/02/14 10:51:26;;;;;;;5.68;1.70;;;;;;;;;;5063443;28;20029;-51
2022/02/14 10:53:54;;;;;;;4.93;1.50;;;;;;;;;;5067882;28;20052;-49
2022/02/14 10:56:22;;;;;;;3.38;1.63;;;;;;;;;;5066410;28;20032;-51
2022/02/14 10:58:48;;;;;;;4.13;1.75;;;;;;;;;;5065973;28;20029;-50
2022/02/14 11:01:15;;;;;;;3.90;1.27;;;;;;;;;;5057365;28;20046;-49
2022/02/14 11:03:42;;;;;;;3.10;1.17;;;;;;;;;;5064147;28;20017;-50
2022/02/14 11:06:10;;;;;;;3.97;1.50;;;;;;;;;;5069704;28;20100;-51
2022/02/14 11:08:37;;;;;;;3.35;1.52;;;;;;;;;;5067867;28;20409;-50
2022/02/14 11:11:04;;;;;;;2.35;1.30;;;;;;;;;;5064693;28;20054;-54
2022/02/14 11:13:31;;;;;;;4.32;1.70;;;;;;;;;;5066261;28;20025;-55
2022/02/14 11:15:59;;;;;;;5.78;1.77;;;;;;;;;;5059015;28;20044;-52
2022/02/14 11:18:31;;;;;;;2.78;1.40;;;;;;;;;;5065963;28;20592;-50
2022/02/14 11:20:59;;;;;;;2.83;1.08;;;;;;;;;;5064901;28;20037;-52
2022/02/14 11:23:27;;;;;;;2.08;1.15;;;;;;;;;;5072384;28;20040;-50
2022/02/14 11:25:59;;;;;;;5.50;1.45;;;;;;;;;;5066902;28;20024;-54
2022/02/14 11:28:28;;;;;;;3.53;1.55;;;;;;;;;;5063438;28;20040;-49
2022/02/14 11:31:14;;;;;;;4.30;1.08;;;;;;;;;;5060288;28;20113;-51
2022/02/14 11:33:41;;;;;;;7.65;1.15;;;;;;;;;;5063609;28;20106;-47
2022/02/14 11:36:09;;;;;;;5.13;1.20;;;;;;;;;;5066536;28;20079;-49
2022/02/14 11:38:43;;;;;;;8.10;2.75;;;;;;;;;;5059126;28;20029;-48
2022/02/14 11:41:08;;;;;;;;;;;;;;;;;;5058274;28;20025;-46
2022/02/14 11:43:38;;;;;;;4.50;1.52;;;;;;;;;;5063530;28;20004;-51
2022/02/14 11:46:18;;;;;;;1.52;1.02;;;;;;;;;;5063160;28;20065;-52
2022/02/14 11:48:44;;;;;;;5.85;1.55;;;;;;;;;;5059372;28;20032;-52
2022/02/14 11:51:17;;;;;;;2.05;0.88;;;;;;;;;;5057157;28;20064;-48
2022/02/14 11:53:45;;;;;;;3.80;1.80;;;;;;;;;;5058632;28;20519;-49
2022/02/14 11:56:23;;;;;;;2.33;1.33;;;;;;;;;;5054740;28;20025;-49
2022/02/14 11:58:58;;;;;;;2.78;1.50;;;;;;;;;;5067157;28;20500;-49
2022/02/14 12:01:24;;;;;;;3.75;1.40;;;;;;;;;;5061069;28;20163;-52
2022/02/14 12:03:51;;;;;;;3.03;0.98;;;;;;;;;;5068132;28;20021;-49
2022/02/14 12:06:17;;;;;;;2.67;1.13;;;;;;;;;;5067049;28;20036;-51
2022/02/14 12:08:59;;;;;;;4.22;1.23;;;;;;;;;;5070854;28;20032;-52
2022/02/14 12:11:44;;;;;;;3.63;1.35;;;;;;;;;;5061189;28;20382;-51
2022/02/14 12:14:17;;;;;;;2.30;1.20;;;;;;;;;;5062293;28;20047;-52
2022/02/14 12:22:31;;;;;;;4.32;2.38;;;;;;;;;;5071274;28;20047;-49
2022/02/14 12:24:57;;;;;;;6.10;1.05;;;;;;;;;;5064803;28;20028;-52
2022/02/14 12:27:23;;;;;;;3.47;1.17;;;;;;;;;;5068531;28;20095;-50
2022/02/14 12:29:50;;;;;;;2.80;1.30;;;;;;;;;;5070357;28;20168;-49
2022/02/14 12:32:17;;;;;;;4.18;1.67;;;;;;;;;;5070958;28;20037;-48
2022/02/14 12:34:44;;;;;;;3.53;1.50;;;;;;;;;;5069833;28;20384;-49
2022/02/14 12:37:11;;;;;;;2.58;1.35;;;;;;;;;;5065123;28;20027;-47
2022/02/14 12:39:39;;;;;;;2.95;1.23;;;;;;;;;;5070868;28;20021;-49
2022/02/14 12:42:09;;;;;;;2.13;1.35;;;;;;;;;;5063478;28;20025;-52
2022/02/14 12:44:36;;;;;;;2.47;1.10;;;;;;;;;;5067145;28;20036;-52
2022/02/14 12:47:02;;;;;;;2.78;1.10;;;;;;;;;;5064233;28;20485;-52
2022/02/14 12:49:28;;;;;;;3.78;1.25;;;;;;;;;;5070015;28;20460;-54
2022/02/14 12:52:07;;;;;;;4.57;1.40;;;;;;;;;;5068048;28;20056;-49
2022/02/14 12:54:33;;;;;;;4.75;1.08;;;;;;;;;;5062418;28;20437;-49
2022/02/14 12:56:59;;;;;;;1.95;1.08;;;;;;;;;;5067078;28;20060;-53
2022/02/14 12:59:33;;;;;;;7.38;1.02;;;;;;;;;;5070482;28;20545;-54
2022/02/14 13:01:59;;;;;;;3.05;1.15;;;;;;;;;;5066427;28;20036;-51
2022/02/14 13:04:28;;;;;;;3.17;1.20;;;;;;;;;;5073056;28;20028;-48
2022/02/14 13:06:58;;;;;;;2.55;0.90;;;;;;;;;;5072775;28;20491;-47
2022/02/14 13:09:29;;;;;;;3.13;1.20;;;;;;;;;;5066879;28;20040;-47
2022/02/14 13:12:04;;;;;;;6.95;1.63;;;;;;;;;;5062123;28;20028;-48
2022/02/14 13:14:42;;;;;;;2.88;1.30;;;;;;;;;;5068722;28;20040;-52
2022/02/14 13:17:09;;;;;;;3.03;1.15;;;;;;;;;;5058969;28;20021;-51
2022/02/14 13:19:36;;;;;;;3.70;1.52;;;;;;;;;;5067378;28;20056;-52
2022/02/14 13:22:03;;;;;;;11.32;2.83;;;;;;;;;;5068011;28;20044;-53
2022/02/14 13:24:36;;;;;;;3.67;1.75;;;;;;;;;;5058573;28;20032;-49
2022/02/14 13:27:04;;;;;;;2.20;1.17;;;;;;;;;;5064683;28;20035;-47
2022/02/14 13:29:40;;;;;;;2.03;1.33;;;;;;;;;;5070019;28;20560;-50
2022/02/14 13:32:06;;;;;;;3.40;1.08;;;;;;;;;;5064823;28;20112;-52
2022/02/14 13:34:32;;;;;;;2.17;1.10;;;;;;;;;;5065819;28;20415;-50
2022/02/14 13:37:00;;;;;;;2.85;1.17;;;;;;;;;;5064948;28;20121;-50
2022/02/14 13:39:34;;;;;;;5.97;1.08;;;;;;;;;;5071689;28;20027;-53
2022/02/14 13:42:03;;;;;;;1.52;1.00;;;;;;;;;;5068492;28;20095;-50
2022/02/14 13:44:29;;;;;;;2.05;0.88;;;;;;;;;;5068102;28;20074;-53
2022/02/14 13:46:56;;;;;;;1.30;0.82;;;;;;;;;;5072373;28;20032;-51
2022/02/14 13:49:31;;;;;;;5.15;1.65;;;;;;;;;;5071706;28;20085;-52
2022/02/14 13:51:57;;;;;;;1.92;0.85;;;;;;;;;;5064773;28;20414;-47
2022/02/14 13:54:23;;;;;;;1.95;0.60;;;;;;;;;;5078337;28;20072;-47
2022/02/14 13:56:50;;;;;;;3.30;1.20;;;;;;;;;;5072516;28;20074;-48
2022/02/14 13:59:18;;;;;;;2.78;0.82;;;;;;;;;;5071306;28;20102;-47
2022/02/14 14:01:45;;;;;;;1.75;0.73;;;;;;;;;;5062968;28;20040;-52
2022/02/14 14:04:22;;;;;;;2.28;1.52;;;;;;;;;;5054811;28;20036;-47
2022/02/14 14:06:49;;;;;;;2.55;1.50;;;;;;;;;;5064810;28;20052;-49
2022/02/14 14:09:18;;;;;;;3.15;1.10;;;;;;;;;;5061286;28;20086;-50
2022/02/14 14:11:45;;;;;;;3.83;1.40;;;;;;;;;;5066066;28;20112;-49
2022/02/14 14:14:28;;;;;;;2.22;1.15;;;;;;;;;;5069576;28;20021;-46
2022/02/14 14:16:54;;;;;;;4.03;1.17;;;;;;;;;;5059946;28;20029;-48
2022/02/14 14:19:20;;;;;;;1.35;0.75;;;;;;;;;;5065902;28;20087;-46
2022/02/14 14:21:46;;;;;;;2.92;1.08;;;;;;;;;;5066848;28;20112;-49
2022/02/14 14:24:12;;;;;;;2.88;1.20;;;;;;;;;;5056758;28;20039;-47
2022/02/14 14:26:38;;;;;;;2.63;1.20;;;;;;;;;;5065025;28;20103;-45
2022/02/14 14:29:04;;;;;;;3.35;1.40;;;;;;;;;;5069692;28;20095;-47
2022/02/14 14:31:30;;;;;;;2.72;1.17;;;;;;;;;;5066350;28;20043;-48
2022/02/14 14:33:56;;;;;;;2.63;1.13;;;;;;;;;;5067157;28;20031;-47
2022/02/14 14:36:22;;;;;;;3.35;1.33;;;;;;;;;;5069393;28;20452;-47
2022/02/14 14:38:48;;;;;;;2.58;1.20;;;;;;;;;;5064768;28;20385;-46
2022/02/14 14:41:14;;;;;;;2.78;1.40;;;;;;;;;;5064954;28;20107;-47
2022/02/14 14:43:42;;;;;;;4.28;1.30;;;;;;;;;;5059853;28;20023;-46
2022/02/14 14:46:09;;;;;;;2.25;1.20;;;;;;;;;;5060647;28;20082;-45
2022/02/14 14:48:35;;;;;;;3.38;1.20;;;;;;;;;;5065279;28;20024;-45